Time;durP1;ratioP1;P1;durP2;ratioP2;P2;SDS_P1;SDS_P2;PMS_P1;PMS_P2;Temp;Humidity;BMP_temperature;BMP_pressure;BME280_temperature;BME280_humidity;BME280_pressure;Samples;Min_cycle;Max_cycle;Signal;HPM_P1;HPM_P2
2021/12/04 00:04:35;;;;;;;18.20;9.30;;;;;;;1.12;48.70;98495.66;212860;1325;139284;-62
2021/12/04 00:09:38;;;;;;;21.70;8.90;;;;;;;1.16;48.93;98500.64;211780;1326;138896;-60
2021/12/04 00:14:41;;;;;;;14.90;8.00;;;;;;;1.06;48.77;98499.20;212372;1323;139423;-60
2021/12/04 00:19:44;;;;;;;20.00;9.10;;;;;;;0.94;48.83;98489.27;212128;1328;140309;-60
2021/12/04 00:24:48;;;;;;;16.20;8.00;;;;;;;0.85;48.93;98498.14;212737;1322;139154;-60
2021/12/04 00:29:51;;;;;;;21.20;9.10;;;;;;;0.75;48.96;98490.77;212188;1326;139593;-60
2021/12/04 00:35:06;;;;;;;19.70;8.50;;;;;;;0.67;48.93;98487.00;212577;1322;140243;-61
2021/12/04 00:50:54;;;;;;;19.00;7.70;;;;;;;0.52;48.68;98497.73;213016;1322;139289;-65
2021/12/04 00:55:57;;;;;;;15.70;7.20;;;;;;;0.49;48.63;98497.50;212379;1329;139688;-61
2021/12/04 01:01:00;;;;;;;15.80;7.50;;;;;;;0.42;48.57;98497.16;212008;1330;140113;-59
2021/12/04 01:06:06;;;;;;;19.40;8.10;;;;;;;0.45;48.70;98496.90;213003;1325;139937;-59
2021/12/04 01:11:09;;;;;;;19.20;7.90;;;;;;;0.49;48.70;98482.67;211970;1323;139091;-60
2021/12/04 01:16:14;;;;;;;13.70;7.10;;;;;;;0.41;48.56;98480.80;212866;1325;139561;-57
2021/12/04 01:21:17;;;;;;;15.90;7.50;;;;;;;0.38;48.56;98479.69;212423;1322;139126;-61
2021/12/04 01:26:21;;;;;;;18.50;7.30;;;;;;;0.40;48.69;98473.48;213200;1325;139627;-59
2021/12/04 01:31:25;;;;;;;15.50;6.60;;;;;;;0.49;48.73;98468.00;212684;1323;139681;-57
2021/12/04 01:36:29;;;;;;;13.20;6.70;;;;;;;0.57;48.81;98465.30;212207;1325;138965;-59
2021/12/04 01:41:33;;;;;;;18.30;7.80;;;;;;;0.62;48.49;98459.21;211925;1325;139548;-60
2021/12/04 01:46:36;;;;;;;15.00;6.90;;;;;;;0.58;48.53;98452.38;212703;1323;140786;-58
2021/12/04 01:51:39;;;;;;;14.10;6.80;;;;;;;0.55;48.43;98453.86;212805;1323;138966;-59
2021/12/04 01:56:42;;;;;;;16.10;7.70;;;;;;;0.52;48.38;98454.47;212535;1322;138898;-58
2021/12/04 02:01:45;;;;;;;12.30;6.80;;;;;;;0.50;48.44;98447.73;211860;1328;139080;-61
2021/12/04 02:06:49;;;;;;;12.60;5.90;;;;;;;0.46;48.42;98440.00;212956;1322;138924;-58
2021/12/04 02:11:52;;;;;;;13.50;6.30;;;;;;;0.47;48.56;98438.90;211987;1331;139181;-58
2021/12/04 02:16:55;;;;;;;12.00;5.80;;;;;;;0.43;48.41;98427.68;212285;1325;139580;-59
2021/12/04 02:21:58;;;;;;;12.70;6.10;;;;;;;0.47;48.46;98413.95;212226;1328;138779;-58
2021/12/04 02:27:02;;;;;;;13.80;6.40;;;;;;;0.47;48.36;98404.17;213301;1322;140078;-59
2021/12/04 02:32:05;;;;;;;12.20;5.60;;;;;;;0.50;48.57;98384.91;212390;1322;139792;-59
2021/12/04 02:37:08;;;;;;;12.70;5.80;;;;;;;0.51;48.45;98374.58;212604;1323;139166;-56
2021/12/04 02:42:22;;;;;;;14.20;6.00;;;;;;;0.49;48.39;98370.46;212939;1322;139045;-61
2021/12/04 02:47:27;;;;;;;12.90;5.90;;;;;;;0.47;48.23;98364.91;212434;1325;138978;-60
2021/12/04 02:52:30;;;;;;;13.00;5.30;;;;;;;0.40;48.23;98369.34;212743;1321;139029;-60
2021/12/04 02:57:36;;;;;;;12.40;5.70;;;;;;;0.39;48.36;98369.90;212693;1322;139506;-58
2021/12/04 03:02:40;;;;;;;11.40;5.50;;;;;;;0.32;48.34;98366.09;212487;1324;139156;-62
2021/12/04 03:07:44;;;;;;;15.20;5.80;;;;;;;0.34;48.38;98364.30;212187;1326;139916;-59
2021/12/04 03:12:47;;;;;;;10.90;5.30;;;;;;;0.34;48.19;98355.25;211996;1321;184446;-59
2021/12/04 03:17:51;;;;;;;8.80;5.00;;;;;;;0.28;48.33;98348.08;213131;1322;139175;-62
2021/12/04 03:22:59;;;;;;;10.70;5.40;;;;;;;0.31;48.34;98345.38;212184;1325;138858;-58
2021/12/04 03:28:05;;;;;;;10.50;4.70;;;;;;;0.39;48.48;98350.88;212731;1321;138730;-60
2021/12/04 03:43:52;;;;;;;14.40;6.30;;;;;;;0.43;49.17;98340.08;212046;1323;138774;-60
2021/12/04 03:48:55;;;;;;;16.50;6.00;;;;;;;0.36;49.31;98339.45;212657;1323;139770;-59
2021/12/04 03:53:58;;;;;;;14.70;6.30;;;;;;;0.33;49.41;98334.67;212000;1329;138830;-61
2021/12/04 03:59:02;;;;;;;14.20;6.10;;;;;;;0.29;49.46;98332.19;212616;1324;139544;-60
2021/12/04 04:04:05;;;;;;;11.80;6.00;;;;;;;0.27;49.46;98331.20;212384;1325;139682;-58
2021/12/04 04:09:08;;;;;;;10.60;5.60;;;;;;;0.23;49.75;98332.01;213188;1322;139033;-58
2021/12/04 04:14:12;;;;;;;16.30;5.90;;;;;;;0.17;50.11;98333.95;212950;1329;138881;-64
2021/12/04 04:19:15;;;;;;;12.80;5.90;;;;;;;0.12;50.45;98327.83;212919;1323;139226;-60
2021/12/04 04:24:18;;;;;;;13.40;5.70;;;;;;;0.07;50.27;98323.81;212514;1325;140511;-56
2021/12/04 04:29:22;;;;;;;19.20;6.80;;;;;;;0.03;50.33;98327.59;212876;1325;138962;-58
2021/12/04 04:34:31;;;;;;;19.50;7.10;;;;;;;0.02;50.49;98324.82;212780;1322;139244;-60
2021/12/04 05:17:15;;;;;;;14.90;7.30;;;;;;;-0.35;51.86;98270.71;212930;1322;139409;-58
2021/12/04 05:22:21;;;;;;;17.00;7.10;;;;;;;-0.38;52.23;98267.16;211954;1328;139143;-58
2021/12/04 05:27:24;;;;;;;15.80;7.00;;;;;;;-0.43;52.35;98262.77;212346;1329;139594;-58
2021/12/04 05:32:27;;;;;;;15.80;7.40;;;;;;;-0.48;52.43;98259.46;212207;1325;139036;-59
2021/12/04 05:37:30;;;;;;;19.50;7.60;;;;;;;-0.51;52.65;98260.92;212525;1329;139648;-62
2021/12/04 05:42:33;;;;;;;15.80;7.10;;;;;;;-0.53;52.76;98259.23;212517;1323;139146;-62
2021/12/04 05:48:31;;;;;;;15.90;7.40;;;;;;;-0.56;53.05;98252.89;212938;1326;140398;-61
2021/12/04 05:58:28;;;;;;;19.00;8.90;;;;;;;-0.54;53.20;98240.97;212849;1323;139880;-59
2021/12/04 06:03:32;;;;;;;17.50;8.70;;;;;;;-0.49;53.08;98232.98;212232;1330;139922;-60
2021/12/04 06:08:35;;;;;;;22.40;8.20;;;;;;;-0.49;53.18;98225.50;212735;1327;140540;-59
2021/12/04 06:13:39;;;;;;;19.70;8.30;;;;;;;-0.48;53.29;98219.38;212234;1324;139292;-60
2021/12/04 06:18:46;;;;;;;16.10;8.00;;;;;;;-0.46;53.50;98207.98;212376;1324;139192;-57
2021/12/04 06:23:49;;;;;;;18.30;8.50;;;;;;;-0.45;53.49;98204.11;212657;1322;138963;-56
2021/12/04 06:28:52;;;;;;;21.00;8.60;;;;;;;-0.44;53.56;98202.36;212068;1330;139496;-61
2021/12/04 06:33:55;;;;;;;29.70;9.20;;;;;;;-0.42;53.72;98193.04;211865;1331;140971;-60
2021/12/04 06:38:58;;;;;;;20.30;8.10;;;;;;;-0.35;53.53;98193.88;212163;1331;139368;-62
2021/12/04 06:44:02;;;;;;;18.40;8.70;;;;;;;-0.31;53.67;98191.83;213111;1325;139393;-60
2021/12/04 06:49:12;;;;;;;16.10;7.50;;;;;;;-0.24;54.00;98184.13;212823;1327;140671;-58
2021/12/04 06:54:21;;;;;;;20.20;7.60;;;;;;;-0.17;54.18;98184.77;212264;1328;140715;-62
2021/12/04 06:59:33;;;;;;;14.20;7.30;;;;;;;-0.08;54.31;98179.73;212047;1324;139401;-58
2021/12/04 07:04:37;;;;;;;17.50;6.70;;;;;;;0.01;54.36;98174.76;212057;1328;139974;-61
2021/12/04 07:09:41;;;;;;;19.20;7.80;;;;;;;0.25;55.10;98179.16;212478;1326;139717;-57
2021/12/04 07:14:44;;;;;;;16.90;7.10;;;;;;;0.55;54.44;98178.98;212009;1329;139179;-61
2021/12/04 07:19:47;;;;;;;18.80;7.30;;;;;;;0.64;53.81;98174.83;211922;1329;140020;-63
2021/12/04 07:24:50;;;;;;;21.60;8.70;;;;;;;0.65;53.56;98178.27;212458;1323;139222;-65
2021/12/04 07:29:55;;;;;;;15.20;6.70;;;;;;;0.69;53.79;98175.00;212214;1329;139959;-60
2021/12/04 07:34:58;;;;;;;14.10;6.90;;;;;;;0.72;53.97;98173.29;212152;1328;139057;-60
2021/12/04 07:40:02;;;;;;;27.30;12.90;;;;;;;0.77;53.77;98172.25;211888;1328;139004;-63
2021/12/04 07:45:07;;;;;;;19.50;7.90;;;;;;;0.89;54.33;98166.39;212140;1323;139289;-61
2021/12/04 07:50:11;;;;;;;23.80;8.70;;;;;;;1.02;54.06;98154.59;212304;1330;138942;-64
2021/12/04 07:55:14;;;;;;;17.10;8.50;;;;;;;1.06;54.17;98153.20;212478;1328;139108;-65
2021/12/04 08:00:19;;;;;;;18.00;8.20;;;;;;;1.13;53.98;98157.80;211975;1331;139863;-59
2021/12/04 08:05:23;;;;;;;18.80;8.40;;;;;;;1.17;53.81;98149.95;212537;1328;140167;-58
2021/12/04 08:10:26;;;;;;;17.80;7.50;;;;;;;1.21;53.80;98143.19;212648;1324;139421;-61
2021/12/04 08:15:30;;;;;;;21.10;7.90;;;;;;;1.27;53.81;98132.14;212625;1325;141804;-61
2021/12/04 08:20:34;;;;;;;23.40;8.00;;;;;;;1.37;53.78;98125.26;212309;1325;139860;-59
2021/12/04 08:25:37;;;;;;;24.30;8.10;;;;;;;1.47;53.57;98123.30;212529;1327;139285;-66
2021/12/04 08:30:41;;;;;;;15.60;7.70;;;;;;;1.57;53.38;98132.48;211961;1330;140171;-57
2021/12/04 08:35:44;;;;;;;18.90;7.90;;;;;;;1.70;53.44;98129.34;212247;1331;139237;-60
2021/12/04 08:40:48;;;;;;;14.20;7.30;;;;;;;1.85;53.25;98122.45;211968;1324;138920;-58
2021/12/04 08:45:51;;;;;;;16.00;7.50;;;;;;;1.98;53.17;98115.08;212214;1326;139500;-61
2021/12/04 08:50:55;;;;;;;16.60;8.10;;;;;;;2.12;53.14;98108.89;211853;1325;139382;-60
2021/12/04 08:55:59;;;;;;;20.60;8.20;;;;;;;2.22;53.24;98109.83;211787;1331;139160;-65
2021/12/04 09:01:05;;;;;;;25.50;13.70;;;;;;;2.34;53.34;98109.86;212467;1328;139826;-61
2021/12/04 09:06:09;;;;;;;15.30;8.10;;;;;;;2.55;53.43;98104.02;213269;1322;139729;-59
2021/12/04 09:11:17;;;;;;;17.80;7.90;;;;;;;2.67;52.84;98098.23;212783;1323;139192;-61
2021/12/04 09:16:23;;;;;;;17.30;7.90;;;;;;;2.73;52.59;98088.84;212342;1325;139286;-64
2021/12/04 09:21:28;;;;;;;17.60;8.10;;;;;;;2.87;52.62;98088.56;212505;1328;140283;-66
2021/12/04 10:35:53;;;;;;;15.80;5.70;;;;;;;4.47;51.25;97987.71;211582;1329;139188;-60
2021/12/04 10:40:56;;;;;;;10.50;4.50;;;;;;;4.47;50.28;97981.02;211844;1329;139313;-61
2021/12/04 10:46:15;;;;;;;9.40;4.90;;;;;;;4.46;49.91;97970.39;212381;1330;140188;-68
2021/12/04 11:23:33;;;;;;;13.10;5.20;;;;;;;4.82;48.11;97916.20;211973;1325;125564;-57
2021/12/04 11:44:45;;;;;;;9.80;4.60;;;;;;;5.01;47.44;97885.73;212141;1330;138509;-60
2021/12/04 11:49:48;;;;;;;75.40;39.00;;;;;;;5.22;47.87;97884.20;212488;1328;139692;-57
2021/12/04 11:54:57;;;;;;;8.70;5.40;;;;;;;5.48;47.66;97874.71;212193;1321;139580;-59
2021/12/04 12:00:35;;;;;;;8.70;4.10;;;;;;;5.59;46.86;97868.08;211803;1335;139401;-61
2021/12/04 12:06:05;;;;;;;7.30;4.30;;;;;;;5.67;46.67;97857.05;212321;1322;139196;-60
2021/12/04 12:11:12;;;;;;;8.90;4.30;;;;;;;5.74;46.35;97845.48;212058;1323;139060;-58
2021/12/04 12:16:20;;;;;;;8.30;4.30;;;;;;;5.82;46.46;97837.63;212176;1326;139439;-60
2021/12/04 12:21:39;;;;;;;7.60;4.10;;;;;;;5.88;46.36;97830.38;212052;1329;139531;-61
2021/12/04 12:36:57;;;;;;;11.40;6.40;;;;;;;5.90;47.03;97816.35;211979;1329;140453;-60
2021/12/04 12:42:00;;;;;;;19.40;7.50;;;;;;;5.80;47.05;97820.30;212286;1325;139726;-58
2021/12/04 12:47:15;;;;;;;28.20;11.30;;;;;;;5.68;47.05;97817.88;212423;1328;139586;-60
2021/12/04 12:52:25;;;;;;;26.10;11.00;;;;;;;5.59;47.47;97816.89;212096;1324;139896;-59
2021/12/04 12:57:43;;;;;;;42.00;21.80;;;;;;;5.52;47.85;97812.78;212746;1322;139167;-58
2021/12/04 13:13:45;;;;;;;20.40;9.70;;;;;;;5.28;47.76;97808.25;212229;1327;140179;-60
2021/12/04 13:18:58;;;;;;;21.60;10.10;;;;;;;5.20;48.19;97806.08;211705;1328;139166;-60
2021/12/04 13:24:01;;;;;;;19.90;10.00;;;;;;;5.12;48.30;97799.84;212203;1325;140001;-60
2021/12/04 13:29:06;;;;;;;18.60;10.40;;;;;;;5.04;48.58;97806.85;212264;1327;139223;-59
2021/12/04 13:34:12;;;;;;;29.90;11.70;;;;;;;4.94;48.64;97811.30;212531;1324;140223;-59
2021/12/04 13:39:18;;;;;;;25.30;12.50;;;;;;;4.85;48.70;97813.09;212466;1329;139935;-59
2021/12/04 13:44:25;;;;;;;24.30;13.30;;;;;;;4.83;49.30;97813.91;212075;1321;140205;-56
2021/12/04 13:49:33;;;;;;;28.90;15.60;;;;;;;5.16;51.24;97814.91;212360;1322;139709;-57
2021/12/04 13:54:45;;;;;;;30.90;16.20;;;;;;;5.52;50.37;97813.64;212011;1325;139451;-57
2021/12/04 13:59:48;;;;;;;36.60;17.80;;;;;;;5.33;49.67;97812.86;211859;1325;141702;-61
2021/12/04 14:05:02;;;;;;;49.20;25.50;;;;;;;5.12;49.78;97810.60;211947;1325;139742;-61
2021/12/04 14:10:17;;;;;;;38.60;19.80;;;;;;;5.16;50.75;97817.91;213451;1322;139718;-61
2021/12/04 14:15:22;;;;;;;42.70;19.30;;;;;;;5.12;49.95;97812.89;213452;1322;139081;-59
2021/12/04 14:20:27;;;;;;;41.90;19.40;;;;;;;4.94;49.84;97812.19;214357;1321;139521;-60
2021/12/04 14:25:30;;;;;;;39.90;19.00;;;;;;;4.80;50.11;97814.77;212243;1326;138935;-58
2021/12/04 14:30:35;;;;;;;37.30;18.90;;;;;;;4.67;50.15;97812.14;211893;1322;138825;-60
2021/12/04 14:35:41;;;;;;;36.40;18.50;;;;;;;4.58;50.40;97814.48;212151;1322;141647;-59
2021/12/04 14:40:50;;;;;;;117.80;67.00;;;;;;;4.52;50.77;97817.09;212079;1329;140199;-61
2021/12/04 14:45:56;;;;;;;49.80;22.40;;;;;;;4.69;51.62;97811.17;211831;1331;139355;-63
2021/12/04 14:51:06;;;;;;;44.00;19.60;;;;;;;4.64;50.78;97805.15;212140;1329;139137;-61
2021/12/04 14:56:12;;;;;;;37.20;19.50;;;;;;;4.54;50.58;97802.74;212602;1324;139251;-60
2021/12/04 15:01:19;;;;;;;41.10;19.90;;;;;;;4.46;51.03;97796.66;212227;1329;138978;-64
2021/12/04 15:06:24;;;;;;;43.40;20.00;;;;;;;4.40;50.84;97796.86;212257;1325;139935;-59
2021/12/04 15:11:31;;;;;;;39.30;19.30;;;;;;;4.35;50.77;97794.35;212128;1328;139855;-59
2021/12/04 15:16:40;;;;;;;38.90;19.30;;;;;;;4.31;50.95;97799.35;212502;1325;138730;-59
2021/12/04 15:21:51;;;;;;;43.90;19.70;;;;;;;4.29;50.91;97800.13;211942;1331;139282;-59
2021/12/04 15:26:58;;;;;;;40.50;20.20;;;;;;;4.30;51.26;97807.98;211918;1323;139354;-59
2021/12/04 15:32:07;;;;;;;37.80;19.90;;;;;;;4.30;51.38;97812.90;212276;1324;139342;-64
2021/12/04 15:37:12;;;;;;;58.50;33.00;;;;;;;4.33;51.55;97822.35;212337;1326;138938;-63
2021/12/04 15:47:37;;;;;;;43.80;20.50;;;;;;;4.46;51.30;97828.14;212623;1325;139422;-65
2021/12/04 15:53:01;;;;;;;20.70;9.60;;;;;;;4.42;50.77;97829.41;211935;1326;140297;-66
2021/12/04 15:58:11;;;;;;;121.80;71.90;;;;;;;4.42;50.33;97837.14;212315;1326;139451;-62
2021/12/04 16:03:16;;;;;;;21.70;9.50;;;;;;;4.50;50.54;97842.52;212111;1328;139208;-60
2021/12/04 16:08:23;;;;;;;19.00;9.10;;;;;;;4.49;50.27;97851.31;212581;1328;139301;-67
2021/12/04 16:13:52;;;;;;;24.10;11.60;;;;;;;4.42;50.26;97851.68;212428;1321;140721;-61
2021/12/04 16:18:57;;;;;;;25.50;12.40;;;;;;;4.31;50.18;97853.05;212914;1322;139562;-61
2021/12/04 16:24:01;;;;;;;29.10;15.00;;;;;;;4.24;50.20;97856.40;212522;1325;139656;-61
2021/12/04 16:29:09;;;;;;;216.80;138.60;;;;;;;4.23;50.46;97861.20;211978;1332;139043;-65
2021/12/04 16:39:27;;;;;;;50.40;22.70;;;;;;;4.43;50.36;97853.21;212153;1328;139784;-62
2021/12/04 16:44:32;;;;;;;36.90;16.50;;;;;;;4.39;50.33;97846.44;212424;1326;139097;-65
2021/12/04 16:49:37;;;;;;;30.10;14.10;;;;;;;4.35;50.63;97843.02;211981;1328;139681;-61
2021/12/04 16:59:55;;;;;;;12.10;6.00;;;;;;;4.30;51.46;97824.29;212047;1327;138839;-65
2021/12/04 17:04:58;;;;;;;9.80;5.10;;;;;;;4.26;51.56;97818.38;212110;1329;140048;-59
2021/12/04 17:10:01;;;;;;;11.20;5.40;;;;;;;4.23;52.03;97815.73;212516;1324;138659;-63
2021/12/04 17:15:08;;;;;;;11.80;6.00;;;;;;;4.28;52.31;97816.35;212593;1322;139263;-63
2021/12/04 17:20:19;;;;;;;11.90;6.50;;;;;;;4.34;52.54;97804.92;212986;1323;138910;-61
2021/12/04 17:25:23;;;;;;;11.20;6.30;;;;;;;4.50;52.62;97791.36;212214;1325;139450;-61
2021/12/04 17:30:26;;;;;;;10.30;5.50;;;;;;;4.61;52.47;97782.30;212485;1323;140533;-60
2021/12/04 17:35:29;;;;;;;11.90;5.10;;;;;;;4.66;52.56;97780.95;212257;1322;139236;-63
2021/12/04 17:40:34;;;;;;;11.50;6.10;;;;;;;4.63;52.24;97782.38;212554;1323;138763;-62
2021/12/04 17:45:38;;;;;;;9.50;4.90;;;;;;;4.64;52.23;97783.38;212252;1325;139374;-59
2021/12/04 17:50:43;;;;;;;10.10;5.00;;;;;;;4.64;52.36;97782.87;212195;1325;139373;-60
2021/12/04 17:55:46;;;;;;;9.80;4.90;;;;;;;4.59;52.39;97789.63;211902;1325;139621;-62
2021/12/04 18:00:54;;;;;;;11.00;5.70;;;;;;;4.60;52.32;97794.66;211894;1331;138303;-63
2021/12/04 18:06:03;;;;;;;10.70;5.00;;;;;;;4.63;52.44;97793.83;212273;1328;140945;-58
2021/12/04 18:11:08;;;;;;;13.20;5.40;;;;;;;4.61;52.47;97798.30;212240;1324;139104;-60
2021/12/04 18:16:17;;;;;;;8.50;5.10;;;;;;;4.61;52.82;97788.63;212459;1327;140182;-66
2021/12/04 18:21:20;;;;;;;12.60;5.60;;;;;;;4.63;53.01;97783.43;212519;1324;139634;-62
2021/12/04 18:26:24;;;;;;;9.10;5.70;;;;;;;4.65;52.73;97785.07;212377;1325;139048;-60
2021/12/04 18:31:27;;;;;;;10.60;5.70;;;;;;;4.69;52.64;97783.95;212185;1326;138555;-62
2021/12/04 18:36:32;;;;;;;11.10;6.20;;;;;;;4.74;52.79;97777.85;212336;1328;141184;-61
2021/12/04 18:41:36;;;;;;;13.40;6.30;;;;;;;4.81;52.76;97777.64;212264;1325;138771;-59
2021/12/04 18:46:42;;;;;;;10.80;6.20;;;;;;;4.85;52.75;97771.58;212057;1325;139003;-63
2021/12/04 18:51:47;;;;;;;129.70;81.50;;;;;;;4.91;52.96;97770.36;212903;1326;139293;-64
2021/12/04 18:56:50;;;;;;;18.10;8.80;;;;;;;5.06;53.03;97775.27;212242;1327;139437;-61
2021/12/04 19:01:58;;;;;;;18.00;7.80;;;;;;;5.08;52.70;97773.74;212841;1323;139462;-60
2021/12/04 19:07:03;;;;;;;33.10;20.10;;;;;;;5.07;52.87;97770.79;212300;1323;139050;-61
2021/12/04 19:12:06;;;;;;;16.40;8.90;;;;;;;5.17;52.51;97771.77;212765;1323;141666;-59
2021/12/04 19:17:11;;;;;;;18.20;8.70;;;;;;;5.12;52.56;97770.52;212726;1328;158428;-56
2021/12/04 19:22:14;;;;;;;19.10;8.70;;;;;;;5.09;52.36;97771.02;212501;1325;139331;-68
2021/12/04 19:27:17;;;;;;;18.80;8.80;;;;;;;5.07;52.52;97770.96;212401;1325;139342;-59
2021/12/04 19:32:24;;;;;;;16.60;8.30;;;;;;;5.01;52.27;97766.95;212433;1325;138829;-60
2021/12/04 19:48:31;;;;;;;19.60;10.30;;;;;;;4.92;52.21;97758.33;212921;1326;140308;-59
2021/12/04 19:54:01;;;;;;;26.00;10.90;;;;;;;4.88;52.16;97754.91;212271;1323;140458;-59
2021/12/04 19:59:08;;;;;;;123.20;73.50;;;;;;;4.92;52.69;97749.05;212462;1322;140388;-57
2021/12/04 20:15:07;;;;;;;18.20;9.10;;;;;;;5.01;52.30;97735.84;212273;1322;139655;-63
2021/12/04 20:20:14;;;;;;;18.50;10.40;;;;;;;4.89;52.25;97730.23;212354;1325;139395;-62
2021/12/04 20:25:20;;;;;;;18.80;9.70;;;;;;;4.82;52.60;97731.70;212651;1325;139327;-58
2021/12/04 21:07:53;;;;;;;24.60;12.30;;;;;;;4.45;53.09;97719.66;212287;1319;139257;-59
2021/12/04 21:42:59;;;;;;;26.70;13.50;;;;;;;4.51;52.44;97690.70;212249;1328;140805;-58
2021/12/04 21:50:36;;;;;;;29.10;13.50;;;;;;;4.59;52.17;97696.38;212324;1323;139152;-58
2021/12/04 21:55:47;;;;;;;27.80;14.20;;;;;;;4.62;51.91;97696.04;212285;1329;139386;-61
2021/12/04 22:11:41;;;;;;;32.80;14.10;;;;;;;4.52;51.83;97691.87;212300;1325;139741;-59
2021/12/04 22:59:36;;;;;;;26.40;11.50;;;;;;;4.61;51.15;97637.94;212932;1322;139340;-58
2021/12/04 23:15:43;;;;;;;24.50;10.90;;;;;;;4.72;50.66;97639.14;212683;1325;139198;-63
2021/12/04 23:42:53;;;;;;;17.90;8.80;;;;;;;4.84;50.28;97617.88;211580;1335;139189;-59
